createdAt,value
2024-01-15T00:07:22.508Z,70.62
2024-01-15T00:17:25.825Z,70.32
2024-01-15T00:27:29.447Z,69.93
2024-01-15T00:37:33.264Z,70.73
2024-01-15T00:47:36.794Z,70.54
2024-01-15T00:57:41.409Z,69.52
2024-01-15T01:07:44.837Z,69.71
2024-01-15T01:17:48.280Z,69.77
2024-01-15T01:27:51.518Z,69.36
2024-01-15T01:37:54.872Z,69.35
2024-01-15T01:47:58.289Z,69.84
2024-01-15T01:58:02.387Z,69.97
2024-01-15T02:08:05.949Z,70.23
2024-01-15T02:18:10.124Z,69.46
2024-01-15T02:28:15.598Z,69.67
2024-01-15T02:38:19.320Z,69.20
2024-01-15T02:48:22.661Z,69.44
2024-01-15T02:58:26.032Z,70.18
2024-01-15T03:08:30.648Z,70.66
2024-01-15T03:18:34.088Z,70.74
2024-01-15T03:28:37.469Z,70.14
2024-01-15T03:38:43.650Z,70.47
2024-01-15T03:48:46.946Z,70.11
2024-01-15T03:58:50.259Z,69.61
2024-01-15T04:08:53.507Z,69.14
2024-01-15T04:18:56.724Z,68.76
2024-01-15T04:29:00.393Z,68.72
2024-01-15T04:39:03.634Z,69.15
2024-01-15T04:49:07.111Z,69.35
2024-01-15T04:59:10.423Z,69.43
2024-01-15T05:09:14.769Z,69.72
2024-01-15T05:19:18.451Z,69.60
2024-01-15T05:29:21.993Z,69.55
2024-01-15T05:39:25.160Z,70.13
2024-01-15T05:49:28.547Z,69.81
2024-01-15T05:59:33.539Z,69.22
2024-01-15T06:09:36.803Z,69.11
2024-01-15T06:19:40.192Z,68.70
2024-01-15T06:29:50.557Z,68.64
2024-01-15T06:39:54.654Z,68.62
2024-01-15T06:49:57.950Z,69.04
2024-01-15T07:00:02.172Z,68.83
2024-01-15T07:10:07.495Z,68.77
2024-01-15T07:20:11.416Z,68.02
2024-01-15T07:30:15.587Z,68.15
2024-01-15T07:40:18.919Z,67.55
2024-01-15T07:50:22.199Z,67.59
2024-01-15T08:00:25.575Z,67.84
2024-01-15T08:10:29.017Z,67.97
2024-01-15T08:20:32.357Z,67.49
2024-01-15T08:30:36.319Z,67.31
2024-01-15T08:40:39.793Z,67.40
2024-01-15T08:50:43.283Z,66.11
2024-01-15T09:00:46.507Z,66.01
2024-01-15T09:10:49.956Z,65.88
2024-01-15T09:20:53.304Z,64.91
2024-01-15T09:30:57.061Z,64.91
2024-01-15T09:41:00.855Z,64.22
2024-01-15T09:51:06.336Z,63.97
2024-01-15T10:01:11.194Z,63.56
2024-01-15T10:11:14.520Z,63.45
2024-01-15T10:21:17.776Z,63.50
2024-01-15T10:31:25.283Z,62.66
2024-01-15T10:41:30.661Z,60.97
2024-01-15T10:51:33.963Z,60.88
2024-01-15T11:01:38.822Z,60.68
2024-01-15T11:11:46.256Z,60.76
2024-01-15T11:21:49.666Z,60.91
2024-01-15T11:31:55.976Z,61.12
2024-01-15T11:42:01.305Z,61.69
2024-01-15T11:52:06.434Z,61.63
2024-01-15T12:02:09.835Z,60.40
2024-01-15T12:12:25.841Z,61.00
2024-01-15T12:22:30.079Z,60.99
2024-01-15T12:32:35.975Z,60.29
2024-01-15T12:42:41.190Z,60.72
2024-01-15T12:52:45.024Z,60.40
2024-01-15T13:02:48.770Z,60.80
2024-01-15T13:12:53.605Z,60.63
2024-01-15T13:22:56.859Z,61.12
2024-01-15T13:33:05.238Z,61.68
2024-01-15T13:43:09.656Z,61.65
2024-01-15T13:53:13.232Z,62.79
2024-01-15T14:03:16.852Z,62.76
2024-01-15T14:13:20.225Z,62.54
2024-01-15T14:23:23.770Z,63.02
2024-01-15T14:33:28.195Z,63.12
2024-01-15T14:43:31.693Z,63.83
2024-01-15T14:53:34.933Z,63.69
2024-01-15T15:03:38.336Z,63.41
2024-01-15T15:13:45.578Z,63.63
2024-01-15T15:23:49.865Z,63.88
2024-01-15T15:33:53.158Z,63.91
2024-01-15T15:43:56.754Z,64.84
2024-01-15T15:53:59.929Z,64.77
2024-01-15T16:04:05.525Z,65.03
2024-01-15T16:14:08.973Z,64.78
2024-01-15T16:24:20.396Z,65.46
2024-01-15T16:34:29.972Z,65.90
2024-01-15T16:44:33.634Z,65.65
2024-01-15T16:54:38.753Z,65.73
2024-01-15T17:04:43.809Z,65.70
2024-01-15T17:14:46.941Z,66.08
2024-01-15T17:24:52.963Z,66.68
2024-01-15T17:34:56.407Z,67.25
2024-01-15T17:44:59.704Z,67.36
2024-01-15T17:55:04.279Z,67.56
2024-01-15T18:05:11.092Z,68.39
2024-01-15T18:15:14.552Z,68.89
2024-01-15T18:25:17.922Z,69.45
2024-01-15T18:35:22.948Z,69.82
2024-01-15T18:45:26.424Z,69.87
2024-01-15T18:55:29.592Z,70.86
2024-01-15T19:05:32.967Z,71.64
2024-01-15T19:15:36.224Z,72.67
2024-01-15T19:25:41.640Z,74.02
2024-01-15T19:35:45.497Z,74.99
2024-01-15T19:46:13.386Z,75.13
2024-01-15T19:56:24.886Z,76.41
2024-01-15T20:06:29.151Z,76.67
2024-01-15T20:16:32.873Z,76.68
2024-01-15T20:26:38.923Z,76.85
2024-01-15T20:36:42.770Z,76.76
2024-01-15T20:46:47.664Z,76.39
2024-01-15T20:56:53.309Z,75.38
2024-01-15T21:06:59.529Z,75.31
2024-01-15T21:17:04.759Z,75.38
2024-01-15T21:27:07.960Z,75.55
2024-01-15T21:37:13.850Z,76.19
2024-01-15T21:47:17.185Z,77.36
2024-01-15T21:57:20.623Z,77.71
2024-01-15T22:07:23.861Z,78.09
2024-01-15T22:17:27.270Z,78.17
2024-01-15T22:27:30.555Z,78.38
2024-01-15T22:37:34.764Z,78.53
2024-01-15T22:47:38.322Z,78.94
2024-01-15T22:57:41.916Z,79.66
2024-01-15T23:07:45.129Z,80.04
2024-01-15T23:17:48.870Z,79.55
2024-01-15T23:27:52.683Z,78.77
2024-01-15T23:37:56.225Z,78.48
2024-01-15T23:47:59.530Z,78.14
2024-01-15T23:58:02.711Z,78.00
